Sea Rose — WDI8640 — position and weather

sailwx.info

Track history (hours):
 
Tides and Currents Weather Stations Pressure Air Temp Water Temp Dewpoint Dewpoint Depression Visibility Wind Speed Wind Dir Waves Ship Positions

Sea Rose

Owner: Sea Rose LLC, Mercer Island, WA. More information available from US FCC via Universal Licensing System and Coast Guard Vessel Documentation Center.

Last reported at 2018-Aug-14 06:30 UTC. Time now 2018-Aug-14 06:59 UTC.
Position N 50°17' W 124°43'.

Length 22 m; draft 2 m.

Type: Pleasure craft. MMSI: 367740630.

Date/timePositionNaut miles runAvg speedWind from/ knotsBaromVisibWave heightAir tempDewpointWater temp
2018-Aug-14 06:30N 50°17' W 124°43'0 0.0
2018-Aug-14 06:00N 50°17' W 124°43'0 0.0
2018-Aug-14 05:30N 50°17' W 124°43'0 0.0
2018-Aug-14 05:00N 50°17' W 124°43'0 0.0
2018-Aug-14 04:30N 50°17' W 124°43'0 0.0
2018-Aug-14 04:00N 50°17' W 124°43'0 0.0
2018-Aug-14 03:30N 50°17' W 124°43'0 0.0
2018-Aug-14 03:00N 50°17' W 124°43'0 0.0
2018-Aug-14 02:30N 50°17' W 124°43'0 0.0
2018-Aug-14 02:00N 50°17' W 124°43'0 0.0
2018-Aug-14 01:29N 50°17' W 124°43'0 0.0
2018-Aug-14 01:00N 50°17' W 124°43'0 0.0
2018-Aug-14 00:30N 50°17' W 124°43'0 0.0
2018-Aug-14 00:00N 50°17' W 124°43'0 0.0
2018-Aug-13 23:30N 50°17' W 124°43'0 0.0
2018-Aug-13 23:00N 50°17' W 124°43'0 0.0
2018-Aug-13 22:30N 50°17' W 124°43'0 0.0
2018-Aug-13 22:00N 50°17' W 124°43'0 0.0
2018-Aug-13 21:30N 50°17' W 124°43'0 0.0
2018-Aug-13 21:00N 50°17' W 124°43'0 0.0
2018-Aug-13 20:30N 50°17' W 124°43'0 0.0
2018-Aug-13 20:00N 50°17' W 124°43'0 0.0
2018-Aug-13 19:29N 50°17' W 124°43'0 0.0
2018-Aug-13 19:00N 50°17' W 124°43'0 0.0
2018-Aug-13 18:30N 50°17' W 124°43'1 1.7
2018-Aug-13 18:00N 50°16' W 124°43'4 7.3
2018-Aug-13 17:30N 50°13' W 124°45'4 7.8
2018-Aug-13 17:00N 50°09' W 124°45'4 7.0
2018-Aug-13 16:28N 50°06' W 124°48'3 7.4
2018-Aug-13 16:00N 50°04' W 124°52'2 4.3
2018-Aug-13 15:28N 50°04' W 124°56'0 0.0
2018-Aug-13 14:59N 50°04' W 124°56'0 0.0
2018-Aug-13 14:27N 50°04' W 124°56'0 0.0
2018-Aug-13 14:00N 50°04' W 124°56'0 0.0
2018-Aug-13 13:30N 50°04' W 124°56'0 0.0
2018-Aug-13 12:59N 50°04' W 124°56'0 0.0
2018-Aug-13 12:30N 50°04' W 124°56'0 0.0
2018-Aug-13 12:00N 50°04' W 124°56'0 0.0
2018-Aug-13 11:30N 50°04' W 124°56'0 0.0
2018-Aug-13 11:00N 50°04' W 124°56'0 0.0
2018-Aug-13 10:30N 50°04' W 124°56'0 0.0
2018-Aug-13 10:00N 50°04' W 124°56'0 0.0
2018-Aug-13 09:30N 50°04' W 124°56'0 0.0
2018-Aug-13 08:59N 50°04' W 124°56'0 0.0
2018-Aug-13 08:30N 50°04' W 124°56'0 0.0
2018-Aug-13 07:58N 50°04' W 124°56'0 0.0
2018-Aug-13 07:30N 50°04' W 124°56'0 0.0
2018-Aug-13 07:00N 50°04' W 124°56'0 0.0
2018-Aug-13 06:30N 50°04' W 124°56'0 0.0
2018-Aug-13 06:00N 50°04' W 124°56'0 0.0
2018-Aug-13 05:30N 50°04' W 124°56'0 0.0
2018-Aug-13 04:58N 50°04' W 124°56'0 0.0
2018-Aug-13 04:29N 50°04' W 124°56'0 0.0
2018-Aug-13 03:59N 50°04' W 124°56'0 0.0
2018-Aug-13 03:30N 50°04' W 124°56'0 0.0
2018-Aug-13 03:00N 50°04' W 124°56'0 0.1
2018-Aug-13 02:29N 50°04' W 124°56'0 0.0
2018-Aug-13 02:00N 50°04' W 124°56'0 0.0
2018-Aug-13 01:30N 50°04' W 124°56'0 0.0
2018-Aug-13 01:00N 50°04' W 124°56'0 0.0
2018-Aug-13 00:30N 50°04' W 124°56'3 5.5
2018-Aug-13 00:00N 50°01' W 124°55'4 8.4
2018-Aug-12 23:30N 49°60' W 125°01'4 7.9
2018-Aug-12 23:00N 49°59' W 125°07'3 6.9
2018-Aug-12 22:30N 49°59' W 125°12'3 6.0
2018-Aug-12 22:00N 50°02' W 125°14'0 0.0
2018-Aug-12 21:31N 50°02' W 125°14'0 0.0
2018-Aug-12 21:00N 50°02' W 125°14'0 0.0
2018-Aug-12 20:30N 50°02' W 125°14'0 0.0
2018-Aug-12 20:00N 50°02' W 125°14'0 0.0
2018-Aug-12 19:30N 50°02' W 125°14'0 0.0
2018-Aug-12 19:00N 50°02' W 125°14'0 0.0
2018-Aug-12 18:30N 50°02' W 125°14'0 0.0
2018-Aug-12 18:01N 50°02' W 125°14'0 0.0
2018-Aug-12 17:29N 50°02' W 125°14'0 0.0
2018-Aug-12 17:00N 50°02' W 125°14'0 0.0
2018-Aug-12 16:30N 50°02' W 125°14'0 0.0
2018-Aug-12 16:00N 50°02' W 125°14'0 0.0
2018-Aug-12 15:30N 50°02' W 125°14'0 0.0
2018-Aug-12 15:01N 50°02' W 125°14'0 0.0
2018-Aug-12 14:30N 50°02' W 125°14'0 0.0
2018-Aug-12 14:00N 50°02' W 125°14'0 0.0
2018-Aug-12 13:30N 50°02' W 125°14'0 0.0
2018-Aug-12 13:00N 50°02' W 125°14'0 0.0
2018-Aug-12 12:30N 50°02' W 125°14'0 0.0
2018-Aug-12 12:00N 50°02' W 125°14'0 0.0
2018-Aug-12 11:30N 50°02' W 125°14'0 0.0
2018-Aug-12 11:00N 50°02' W 125°14'0 0.0
2018-Aug-12 10:30N 50°02' W 125°14'0 0.0
2018-Aug-12 10:00N 50°02' W 125°14'0 0.0
2018-Aug-12 09:30N 50°02' W 125°14'0 0.0
2018-Aug-12 09:00N 50°02' W 125°14'0 0.0
2018-Aug-12 08:30N 50°02' W 125°14'0 0.0
2018-Aug-12 08:00N 50°02' W 125°14'0 0.0
2018-Aug-12 07:30N 50°02' W 125°14'0 0.0
2018-Aug-12 07:00N 50°02' W 125°14'0 0.0
2018-Aug-12 06:30N 50°02' W 125°14'0 0.0
2018-Aug-12 06:00N 50°02' W 125°14'0 0.0
2018-Aug-12 05:30N 50°02' W 125°14'0 0.0
2018-Aug-12 05:00N 50°02' W 125°14'0 0.0
2018-Aug-12 04:30N 50°02' W 125°14'0 0.0
2018-Aug-12 04:00N 50°02' W 125°14'0 0.0
2018-Aug-12 03:30N 50°02' W 125°14'0 0.0
2018-Aug-12 03:00N 50°02' W 125°14'0 0.0
2018-Aug-12 02:30N 50°02' W 125°14'0 0.0
2018-Aug-12 02:00N 50°02' W 125°14'0 0.0
2018-Aug-12 01:30N 50°02' W 125°14'0 0.0
2018-Aug-12 01:00N 50°02' W 125°14'0 0.0
2018-Aug-12 00:30N 50°02' W 125°14'0 0.0
2018-Aug-12 00:00N 50°02' W 125°14'0 0.0
2018-Aug-11 23:30N 50°02' W 125°14'0 0.0
2018-Aug-11 23:00N 50°02' W 125°14'0 0.0
2018-Aug-11 22:30N 50°02' W 125°14'0 0.0
2018-Aug-11 22:00N 50°02' W 125°14'0 0.0
2018-Aug-11 21:30N 50°02' W 125°14'0 0.0
2018-Aug-11 21:00N 50°02' W 125°14'0 0.0
2018-Aug-11 20:30N 50°02' W 125°14'0 0.0
2018-Aug-11 20:00N 50°02' W 125°14'0 0.0
2018-Aug-11 19:31N 50°02' W 125°14'0 0.0
2018-Aug-11 19:01N 50°02' W 125°14'0 0.0
2018-Aug-11 18:29N 50°02' W 125°14'0 0.0
2018-Aug-11 18:00N 50°02' W 125°14'0 0.0
2018-Aug-11 17:30N 50°02' W 125°14'0 0.0
2018-Aug-11 17:00N 50°02' W 125°14'0 0.0
2018-Aug-11 16:30N 50°02' W 125°14'0 0.0
2018-Aug-11 16:01N 50°02' W 125°14'0 0.0
2018-Aug-11 15:30N 50°02' W 125°14'0 0.0
2018-Aug-11 15:00N 50°02' W 125°14'0 0.0
2018-Aug-11 14:29N 50°02' W 125°14'0 0.0
2018-Aug-11 14:01N 50°02' W 125°14'0 0.0
2018-Aug-11 13:30N 50°02' W 125°14'0 0.0
2018-Aug-11 13:00N 50°02' W 125°14'0 0.0
2018-Aug-11 12:30N 50°02' W 125°14'0 0.0
2018-Aug-11 12:00N 50°02' W 125°14'0 0.0
2018-Aug-11 11:30N 50°02' W 125°14'0 0.0
2018-Aug-11 11:00N 50°02' W 125°14'0 0.0
2018-Aug-11 10:31N 50°02' W 125°14'0 0.0
2018-Aug-11 10:00N 50°02' W 125°14'0 0.0
2018-Aug-11 09:30N 50°02' W 125°14'0 0.0
2018-Aug-11 09:00N 50°02' W 125°14'0 0.0
2018-Aug-11 08:30N 50°02' W 125°14'0 0.0
2018-Aug-11 08:00N 50°02' W 125°14'0 0.0
2018-Aug-11 07:30N 50°02' W 125°14'0 0.0
2018-Aug-11 07:00N 50°02' W 125°14'0 0.0
2018-Aug-11 06:30N 50°02' W 125°14'0 0.0
2018-Aug-11 06:00N 50°02' W 125°14'0 0.0
2018-Aug-11 05:30N 50°02' W 125°14'0 0.0
2018-Aug-11 05:00N 50°02' W 125°14'0 0.0
2018-Aug-11 04:30N 50°02' W 125°14'0 0.0
2018-Aug-11 04:01N 50°02' W 125°14'0 0.0
2018-Aug-11 03:30N 50°02' W 125°14'0 0.0
2018-Aug-11 03:00N 50°02' W 125°14'0 0.0
2018-Aug-11 02:30N 50°02' W 125°14'0 0.0
2018-Aug-11 02:00N 50°02' W 125°14'0 0.0
2018-Aug-11 01:30N 50°02' W 125°14'0 0.0
2018-Aug-11 01:00N 50°02' W 125°14'0 0.0
2018-Aug-11 00:30N 50°02' W 125°14'0 0.0
2018-Aug-11 00:00N 50°02' W 125°14'0 0.0
2018-Aug-10 23:30N 50°02' W 125°14'0 0.3
2018-Aug-10 23:00N 50°02' W 125°14'2 3.1
2018-Aug-10 22:30N 50°01' W 125°13'4 5.6
2018-Aug-10 21:53N 49°58' W 125°09'3 7.7
2018-Aug-10 21:30N 49°59' W 125°04'4 8.1
2018-Aug-10 21:00N 50°00' W 124°58'4 7.7
2018-Aug-10 20:30N 50°02' W 124°53'4 8.5
2018-Aug-10 20:00N 50°05' W 124°49'4 8.2
2018-Aug-10 19:30N 50°09' W 124°45'3 5.1
2018-Aug-10 19:00N 50°09' W 124°41'0 0.1
2018-Aug-10 18:30N 50°09' W 124°41'0 0.0
2018-Aug-10 17:59N 50°09' W 124°41'0 0.0
2018-Aug-10 17:30N 50°09' W 124°41'0 0.0
2018-Aug-10 17:01N 50°09' W 124°41'0 0.0
2018-Aug-10 16:30N 50°09' W 124°41'0 0.0
2018-Aug-10 16:00N 50°09' W 124°41'0 0.0
2018-Aug-10 15:30N 50°09' W 124°41'0 0.1
2018-Aug-10 15:00N 50°09' W 124°41'0 0.0
2018-Aug-10 14:30N 50°09' W 124°41'0 0.0
2018-Aug-10 14:00N 50°09' W 124°41'0 0.0
2018-Aug-10 13:30N 50°09' W 124°41'0 0.0
2018-Aug-10 13:00N 50°09' W 124°41'0 0.0
2018-Aug-10 12:30N 50°09' W 124°41'0 0.0
2018-Aug-10 12:00N 50°09' W 124°41'0 0.0
2018-Aug-10 11:29N 50°09' W 124°41'0 0.0
2018-Aug-10 11:00N 50°09' W 124°41'0 0.0
2018-Aug-10 10:30N 50°09' W 124°41'0 0.0
2018-Aug-10 10:00N 50°09' W 124°41'0 0.0
2018-Aug-10 09:30N 50°09' W 124°41'0 0.0
2018-Aug-10 09:00N 50°09' W 124°41'0 0.0
2018-Aug-10 08:30N 50°09' W 124°41'0 0.0
2018-Aug-10 08:00N 50°09' W 124°41'0 0.0
2018-Aug-10 07:30N 50°09' W 124°41'0 0.0
2018-Aug-10 07:00N 50°09' W 124°41'0 0.0
2018-Aug-10 06:30N 50°09' W 124°41'0 0.0
2018-Aug-10 06:00N 50°09' W 124°41'0 0.0
2018-Aug-10 05:30N 50°09' W 124°41'0 0.0
2018-Aug-10 05:00N 50°09' W 124°41'0 0.0
2018-Aug-10 04:30N 50°09' W 124°41'0 0.0
2018-Aug-10 04:00N 50°09' W 124°41'0 0.0
2018-Aug-10 03:30N 50°09' W 124°41'0 0.0
2018-Aug-10 03:00N 50°09' W 124°41'0 0.0
2018-Aug-10 02:30N 50°09' W 124°41'0 0.0
2018-Aug-10 02:00N 50°09' W 124°41'0 0.0
2018-Aug-10 01:28N 50°09' W 124°41'0 0.1
2018-Aug-10 01:00N 50°09' W 124°41'0 0.0
2018-Aug-10 00:30N 50°09' W 124°41'0 0.0
2018-Aug-10 00:00N 50°09' W 124°41'0 0.0
2018-Aug-09 23:30N 50°09' W 124°41'0 0.1
2018-Aug-09 23:00N 50°09' W 124°41'0 0.0
2018-Aug-09 22:30N 50°09' W 124°41'0 0.0
2018-Aug-09 21:59N 50°09' W 124°41'0 0.0
2018-Aug-09 21:30N 50°09' W 124°41'0 0.0
2018-Aug-09 21:00N 50°09' W 124°41'0 0.1
2018-Aug-09 20:30N 50°09' W 124°41'0 0.0
2018-Aug-09 20:00N 50°09' W 124°41'0 0.0
2018-Aug-09 19:30N 50°09' W 124°41'0 0.1
2018-Aug-09 19:01N 50°09' W 124°41'0 0.1
2018-Aug-09 18:30N 50°09' W 124°41'0 0.0
2018-Aug-09 18:00N 50°09' W 124°41'0 0.0
2018-Aug-09 17:30N 50°09' W 124°41'0 0.1
2018-Aug-09 17:00N 50°09' W 124°41'0 0.0
2018-Aug-09 16:30N 50°09' W 124°41'0 0.0
2018-Aug-09 16:00N 50°09' W 124°41'0 0.0
2018-Aug-09 15:30N 50°09' W 124°41'0 0.0
2018-Aug-09 15:00N 50°09' W 124°41'0 0.0
2018-Aug-09 14:30N 50°09' W 124°41'0 0.0
2018-Aug-09 14:00N 50°09' W 124°41'0 0.0
2018-Aug-09 13:31N 50°09' W 124°41'0 0.0
2018-Aug-09 13:00N 50°09' W 124°41'0 0.0
2018-Aug-09 12:30N 50°09' W 124°41'0 0.0
2018-Aug-09 12:00N 50°09' W 124°41'0 0.0
2018-Aug-09 11:30N 50°09' W 124°41'0 0.0
2018-Aug-09 11:00N 50°09' W 124°41'0 0.1
2018-Aug-09 10:30N 50°09' W 124°41'0 0.0
2018-Aug-09 10:00N 50°09' W 124°41'0 0.0
2018-Aug-09 09:30N 50°09' W 124°41'0 0.1
2018-Aug-09 09:00N 50°09' W 124°41'0 0.0
2018-Aug-09 08:30N 50°09' W 124°41'0 0.0
2018-Aug-09 08:00N 50°09' W 124°41'0 0.0
2018-Aug-09 07:30N 50°09' W 124°41'0 0.0
2018-Aug-09 07:00N 50°09' W 124°41'0 0.0
2018-Aug-09 06:30N 50°09' W 124°41'0 0.0
2018-Aug-09 06:00N 50°09' W 124°41'0 0.0
2018-Aug-09 05:30N 50°09' W 124°41'0 0.0
2018-Aug-09 05:00N 50°09' W 124°41'0 0.0
2018-Aug-09 04:28N 50°09' W 124°41'0 0.0
2018-Aug-09 04:00N 50°09' W 124°41'0 0.0
2018-Aug-09 03:30N 50°09' W 124°41'0 0.0
2018-Aug-09 03:00N 50°09' W 124°41'0 0.0
2018-Aug-09 02:30N 50°09' W 124°41'0 0.1
2018-Aug-09 02:00N 50°09' W 124°41'0 0.1
2018-Aug-09 01:30N 50°09' W 124°41'0 0.0
2018-Aug-09 01:00N 50°09' W 124°41'0 0.0
2018-Aug-09 00:30N 50°09' W 124°41'0 0.0
2018-Aug-09 00:00N 50°09' W 124°41'0 0.1
2018-Aug-08 23:30N 50°09' W 124°41'0 0.0
2018-Aug-08 23:00N 50°09' W 124°41'0 0.0
2018-Aug-08 22:30N 50°09' W 124°41'0 0.0
2018-Aug-08 22:00N 50°09' W 124°41'0 0.0
2018-Aug-08 21:30N 50°09' W 124°41'0 0.0
2018-Aug-08 20:58N 50°09' W 124°41'0 0.0
2018-Aug-08 20:30N 50°09' W 124°41'0 0.0
2018-Aug-08 20:00N 50°09' W 124°41'0 0.0
2018-Aug-08 19:30N 50°09' W 124°41'0 0.0
2018-Aug-08 19:00N 50°09' W 124°41'0 0.0
2018-Aug-08 18:30N 50°09' W 124°41'0 0.0
2018-Aug-08 18:00N 50°09' W 124°41'0 0.1
2018-Aug-08 17:30N 50°09' W 124°41'0 0.1
2018-Aug-08 17:00N 50°09' W 124°41'0 0.0
2018-Aug-08 16:30N 50°09' W 124°41'0 0.0
2018-Aug-08 15:59N 50°09' W 124°41'0 0.1
2018-Aug-08 15:30N 50°09' W 124°41'0 0.0
2018-Aug-08 15:00N 50°09' W 124°41'0 0.0
2018-Aug-08 14:30N 50°09' W 124°41'0 0.0
2018-Aug-08 14:00N 50°09' W 124°41'0 0.0
2018-Aug-08 13:30N 50°09' W 124°41'0 0.0
2018-Aug-08 13:00N 50°09' W 124°41'0 0.0
2018-Aug-08 12:30N 50°09' W 124°41'0 0.0
2018-Aug-08 12:00N 50°09' W 124°41'0 0.0
2018-Aug-08 11:30N 50°09' W 124°41'0 0.0
2018-Aug-08 11:00N 50°09' W 124°41'0 0.0
2018-Aug-08 10:30N 50°09' W 124°41'0 0.0
2018-Aug-08 10:00N 50°09' W 124°41'0 0.0
2018-Aug-08 09:30N 50°09' W 124°41'0 0.0
2018-Aug-08 09:00N 50°09' W 124°41'0 0.0
2018-Aug-08 08:30N 50°09' W 124°41'0 0.0
2018-Aug-08 08:00N 50°09' W 124°41'0 0.0
2018-Aug-08 07:30N 50°09' W 124°41'0 0.0
2018-Aug-08 07:00N 50°09' W 124°41'0 0.0
2018-Aug-08 06:30N 50°09' W 124°41'0 0.0
2018-Aug-08 06:00N 50°09' W 124°41'0 0.0
2018-Aug-08 05:30N 50°09' W 124°41'0 0.0
2018-Aug-08 05:00N 50°09' W 124°41'0 0.0
2018-Aug-08 04:30N 50°09' W 124°41'0 0.0
2018-Aug-08 04:00N 50°09' W 124°41'0 0.1
2018-Aug-08 03:30N 50°09' W 124°41'0 0.1
2018-Aug-08 03:00N 50°09' W 124°41'0 0.1
2018-Aug-08 02:30N 50°09' W 124°41'0 0.1
2018-Aug-08 02:00N 50°09' W 124°41'0 0.0
2018-Aug-08 01:30N 50°09' W 124°41'0 0.1
2018-Aug-08 01:00N 50°09' W 124°41'0 0.0
2018-Aug-08 00:30N 50°09' W 124°41'0 0.0
2018-Aug-08 00:00N 50°09' W 124°41'0 0.0
2018-Aug-07 23:30N 50°09' W 124°41'0 0.0
2018-Aug-07 23:00N 50°09' W 124°41'0 0.0
2018-Aug-07 22:30N 50°09' W 124°41'0 0.0
2018-Aug-07 22:00N 50°09' W 124°41'0 0.0
2018-Aug-07 21:29N 50°09' W 124°41'0 0.0
2018-Aug-07 21:00N 50°09' W 124°41'0 0.0
2018-Aug-07 20:30N 50°09' W 124°41'0 0.0
2018-Aug-07 20:00N 50°09' W 124°41'0 0.0
2018-Aug-07 19:30N 50°09' W 124°41'0 0.0
2018-Aug-07 19:00N 50°09' W 124°41'0 0.0
2018-Aug-07 18:30N 50°09' W 124°41'0 0.0
2018-Aug-07 18:00N 50°09' W 124°41'0 0.1
2018-Aug-07 17:30N 50°09' W 124°41'0 0.5
2018-Aug-07 17:00N 50°09' W 124°41'3 5.6
2018-Aug-07 16:30N 50°10' W 124°45'4 7.7
2018-Aug-07 16:00N 50°14' W 124°44'3 6.0
2018-Aug-07 15:30N 50°17' W 124°43'0 0.3
2018-Aug-07 15:00N 50°17' W 124°44'0 0.0
2018-Aug-07 14:30N 50°17' W 124°44'0 0.0
2018-Aug-07 14:00N 50°17' W 124°44'0 0.0
2018-Aug-07 13:30N 50°17' W 124°44'0 0.0
2018-Aug-07 13:00N 50°17' W 124°44'0 0.0
2018-Aug-07 12:30N 50°17' W 124°44'0 0.0
2018-Aug-07 12:00N 50°17' W 124°44'0 0.0
2018-Aug-07 11:30N 50°17' W 124°44'0 0.0
2018-Aug-07 11:00N 50°17' W 124°44'0 0.0
2018-Aug-07 10:30N 50°17' W 124°44'0 0.0
2018-Aug-07 10:00N 50°17' W 124°44'0 0.0
2018-Aug-07 09:30N 50°17' W 124°44'0 0.0
2018-Aug-07 09:00N 50°17' W 124°44'0 0.0
2018-Aug-07 08:30N 50°17' W 124°44'0 0.0
2018-Aug-07 08:00N 50°17' W 124°44'0 0.0
2018-Aug-07 07:29N 50°17' W 124°44'0 0.0
2018-Aug-07 07:00N 50°17' W 124°44'0 0.0
2018-Aug-07 06:27N 50°17' W 124°44'0 0.0
2018-Aug-07 06:00N 50°17' W 124°44'0 0.0
2018-Aug-07 05:30N 50°17' W 124°44'0 0.0
2018-Aug-07 05:00N 50°17' W 124°44'0 0.0
2018-Aug-07 04:30N 50°17' W 124°44'0 0.0
2018-Aug-07 04:00N 50°17' W 124°44'0 0.0
2018-Aug-07 03:30N 50°17' W 124°44'0 0.0
2018-Aug-07 03:00N 50°17' W 124°44'0 0.0
2018-Aug-07 02:30N 50°17' W 124°44'0 0.0
2018-Aug-07 02:00N 50°17' W 124°44'0 0.0
2018-Aug-07 01:30N 50°17' W 124°44'0 0.0
2018-Aug-07 01:00N 50°17' W 124°44'0 0.0
2018-Aug-07 00:30N 50°17' W 124°44'0 0.0
2018-Aug-06 23:58N 50°17' W 124°44'0 0.0
2018-Aug-06 23:31N 50°17' W 124°44'0 0.0
2018-Aug-06 23:00N 50°17' W 124°44'0 0.0
2018-Aug-06 22:30N 50°17' W 124°44'0 0.0
2018-Aug-06 22:00N 50°17' W 124°44'0 0.0
2018-Aug-06 21:30N 50°17' W 124°44'0 0.0
2018-Aug-06 20:59N 50°17' W 124°44'0 0.0
2018-Aug-06 20:29N 50°17' W 124°44'0 0.0
2018-Aug-06 20:00N 50°17' W 124°44'0 0.0
2018-Aug-06 19:30N 50°17' W 124°44'0 0.0
2018-Aug-06 19:00N 50°17' W 124°44'0 0.0
2018-Aug-06 18:30N 50°17' W 124°44'0 0.0
2018-Aug-06 18:00N 50°17' W 124°44'0 0.0
2018-Aug-06 17:29N 50°17' W 124°44'0 0.0
2018-Aug-06 17:00N 50°17' W 124°44'0 0.0
2018-Aug-06 16:30N 50°17' W 124°44'0 0.0
2018-Aug-06 16:00N 50°17' W 124°44'0 0.0
2018-Aug-06 15:30N 50°17' W 124°44'0 0.0
2018-Aug-06 15:00N 50°17' W 124°44'0 0.0
2018-Aug-06 14:30N 50°17' W 124°44'0 0.0
2018-Aug-06 14:00N 50°17' W 124°44'0 0.0
2018-Aug-06 13:30N 50°17' W 124°44'0 0.0
2018-Aug-06 13:00N 50°17' W 124°44'0 0.0
2018-Aug-06 12:30N 50°17' W 124°44'0 0.0
2018-Aug-06 12:00N 50°17' W 124°44'0 0.0
2018-Aug-06 11:30N 50°17' W 124°44'0 0.0
2018-Aug-06 11:00N 50°17' W 124°44'0 0.0
2018-Aug-06 10:30N 50°17' W 124°44'0 0.0
2018-Aug-06 10:00N 50°17' W 124°44'0 0.0
2018-Aug-06 09:30N 50°17' W 124°44'0 0.0
2018-Aug-06 09:00N 50°17' W 124°44'0 0.0
2018-Aug-06 08:30N 50°17' W 124°44'0 0.0
2018-Aug-06 08:00N 50°17' W 124°44'0 0.0
2018-Aug-06 07:30N 50°17' W 124°44'0 0.0
2018-Aug-06 07:00N 50°17' W 124°44'0 0.0
2018-Aug-06 06:30N 50°17' W 124°44'0 0.0
2018-Aug-06 05:59N 50°17' W 124°44'0 0.0
2018-Aug-06 05:30N 50°17' W 124°44'0 0.0
2018-Aug-06 05:00N 50°17' W 124°44'0 0.0
2018-Aug-06 04:29N 50°17' W 124°44'0 0.0
2018-Aug-06 04:00N 50°17' W 124°44'0 0.0
2018-Aug-06 03:30N 50°17' W 124°44'0 0.0
2018-Aug-06 03:00N 50°17' W 124°44'0 0.0
2018-Aug-06 02:29N 50°17' W 124°44'0 0.0
2018-Aug-06 02:00N 50°17' W 124°44'0 0.0
2018-Aug-06 01:30N 50°17' W 124°44'0 0.0
2018-Aug-06 01:00N 50°17' W 124°44'0 0.0
2018-Aug-06 00:30N 50°17' W 124°44'0 0.0
2018-Aug-06 00:00N 50°17' W 124°44'0 0.0
2018-Aug-05 23:30N 50°17' W 124°44'0 0.0
2018-Aug-05 23:00N 50°17' W 124°44'0 0.0
2018-Aug-05 22:31N 50°17' W 124°44'0 0.0
2018-Aug-05 22:00N 50°17' W 124°44'0 0.0
2018-Aug-05 21:30N 50°17' W 124°44'0 0.0
2018-Aug-05 21:00N 50°17' W 124°44'0 0.0
2018-Aug-05 20:30N 50°17' W 124°44'0 0.0
2018-Aug-05 20:00N 50°17' W 124°44'0 0.1
2018-Aug-05 19:30N 50°17' W 124°44'2 4.8
2018-Aug-05 19:00N 50°15' W 124°44'4 7.7
2018-Aug-05 18:30N 50°11' W 124°45'4 7.3
2018-Aug-05 18:01N 50°08' W 124°46'3 6.8
2018-Aug-05 17:30N 50°07' W 124°51'4 7.6
2018-Aug-05 17:00N 50°10' W 124°54'3 5.6
2018-Aug-05 16:30N 50°11' W 124°51'1 2.1
2018-Aug-05 16:00N 50°11' W 124°49'0 0.0
2018-Aug-05 15:30N 50°11' W 124°49'0 0.0
2018-Aug-05 15:00N 50°11' W 124°49'0 0.0
2018-Aug-05 14:00N 50°11' W 124°49'0 0.0
2018-Aug-05 13:30N 50°11' W 124°49'0 0.0
2018-Aug-05 13:00N 50°11' W 124°49'0 0.0
2018-Aug-05 12:30N 50°11' W 124°49'0 0.0
2018-Aug-05 12:00N 50°11' W 124°49'0 0.0
2018-Aug-05 11:29N 50°11' W 124°49'0 0.0
2018-Aug-05 10:59N 50°11' W 124°49'0 0.0
2018-Aug-05 10:30N 50°11' W 124°49'0 0.0
2018-Aug-05 10:00N 50°11' W 124°49'0 0.0
2018-Aug-05 09:31N 50°11' W 124°49'0 0.0
2018-Aug-05 09:00N 50°11' W 124°49'0 0.0
2018-Aug-05 08:30N 50°11' W 124°49'0 0.0
2018-Aug-05 08:00N 50°11' W 124°49'0 0.0
2018-Aug-05 07:30N 50°11' W 124°49'0 0.0
2018-Aug-05 07:00N 50°11' W 124°49'0 0.0
2018-Aug-05 06:30N 50°11' W 124°49'0 0.0
2018-Aug-05 06:00N 50°11' W 124°49'0 0.0
2018-Aug-05 05:30N 50°11' W 124°49'0 0.0
2018-Aug-05 05:00N 50°11' W 124°49'0 0.0
2018-Aug-05 04:29N 50°11' W 124°49'0 0.0
2018-Aug-05 04:00N 50°11' W 124°49'0 0.0
2018-Aug-05 03:30N 50°11' W 124°49'1 1.2
2018-Aug-05 03:00N 50°11' W 124°50'3 5.9
2018-Aug-05 02:30N 50°09' W 124°54'4 8.5
2018-Aug-05 02:00N 50°05' W 124°53'4 8.1
2018-Aug-05 01:30N 50°01' W 124°54'4 8.0
2018-Aug-05 01:00N 49°60' W 125°00'4 7.6
2018-Aug-05 00:30N 49°59' W 125°06'4 6.9
2018-Aug-05 00:00N 49°59' W 125°11'3 6.3
2018-Aug-04 23:30N 50°02' W 125°14'2 3.9
2018-Aug-04 23:00N 50°04' W 125°14'0 0.2
2018-Aug-04 22:30N 50°04' W 125°14'0 0.0
2018-Aug-04 22:00N 50°04' W 125°14'0 0.0
2018-Aug-04 21:30N 50°04' W 125°14'1 1.7
2018-Aug-04 21:00N 50°03' W 125°14'1 2.9
2018-Aug-04 20:30N 50°02' W 125°14'0 0.0
2018-Aug-04 20:00N 50°02' W 125°14'0 0.0
2018-Aug-04 19:30N 50°02' W 125°14'0 0.0
2018-Aug-04 19:00N 50°02' W 125°14'0 0.0
2018-Aug-04 18:28N 50°02' W 125°14'0 0.0
2018-Aug-04 18:00N 50°02' W 125°14'0 0.0
2018-Aug-04 17:30N 50°02' W 125°14'0 0.0
2018-Aug-04 17:00N 50°02' W 125°14'0 0.0
2018-Aug-04 16:30N 50°02' W 125°14'0 0.0
2018-Aug-04 16:00N 50°02' W 125°14'0 0.0
2018-Aug-04 15:29N 50°02' W 125°14'0 0.0
2018-Aug-04 15:00N 50°02' W 125°14'0 0.0
2018-Aug-04 14:30N 50°02' W 125°14'0 0.0
2018-Aug-04 14:00N 50°02' W 125°14'0 0.0
2018-Aug-04 13:30N 50°02' W 125°14'0 0.0
2018-Aug-04 13:00N 50°02' W 125°14'0 0.0
2018-Aug-04 12:30N 50°02' W 125°14'0 0.0
2018-Aug-04 12:00N 50°02' W 125°14'0 0.0
2018-Aug-04 11:30N 50°02' W 125°14'0 0.0
2018-Aug-04 11:00N 50°02' W 125°14'0 0.0
2018-Aug-04 10:30N 50°02' W 125°14'0 0.0
2018-Aug-04 10:00N 50°02' W 125°14'0 0.0
2018-Aug-04 09:30N 50°02' W 125°14'0 0.0
2018-Aug-04 09:00N 50°02' W 125°14'0 0.0
2018-Aug-04 08:30N 50°02' W 125°14'0 0.0
2018-Aug-04 08:00N 50°02' W 125°14'0 0.0
2018-Aug-04 07:30N 50°02' W 125°14'0 0.0
2018-Aug-04 06:59N 50°02' W 125°14'0 0.0
2018-Aug-04 06:30N 50°02' W 125°14'  
Track history (hours):
 
Tides and Currents Weather Stations Pressure Air Temp Water Temp Dewpoint Dewpoint Depression Visibility Wind Speed Wind Dir Waves Ship Positions

Sea Rose

Owner: Sea Rose LLC, Mercer Island, WA. More information available from US FCC via Universal Licensing System and Coast Guard Vessel Documentation Center.

Last reported at 2018-Aug-14 06:30 UTC. Time now 2018-Aug-14 06:59 UTC.
Position N 50°17' W 124°43'.

Length 22 m; draft 2 m.

Type: Pleasure craft. MMSI: 367740630.

Date/timePositionNaut miles runAvg speedWind from/ knotsBaromVisibWave heightAir tempDewpointWater temp
2018-Aug-14 06:30N 50°17' W 124°43'0 0.0
2018-Aug-14 06:00N 50°17' W 124°43'0 0.0
2018-Aug-14 05:30N 50°17' W 124°43'0 0.0
2018-Aug-14 05:00N 50°17' W 124°43'0 0.0
2018-Aug-14 04:30N 50°17' W 124°43'0 0.0
2018-Aug-14 04:00N 50°17' W 124°43'0 0.0
2018-Aug-14 03:30N 50°17' W 124°43'0 0.0
2018-Aug-14 03:00N 50°17' W 124°43'0 0.0
2018-Aug-14 02:30N 50°17' W 124°43'0 0.0
2018-Aug-14 02:00N 50°17' W 124°43'0 0.0
2018-Aug-14 01:29N 50°17' W 124°43'0 0.0
2018-Aug-14 01:00N 50°17' W 124°43'0 0.0
2018-Aug-14 00:30N 50°17' W 124°43'0 0.0
2018-Aug-14 00:00N 50°17' W 124°43'0 0.0
2018-Aug-13 23:30N 50°17' W 124°43'0 0.0
2018-Aug-13 23:00N 50°17' W 124°43'0 0.0
2018-Aug-13 22:30N 50°17' W 124°43'0 0.0
2018-Aug-13 22:00N 50°17' W 124°43'0 0.0
2018-Aug-13 21:30N 50°17' W 124°43'0 0.0
2018-Aug-13 21:00N 50°17' W 124°43'0 0.0
2018-Aug-13 20:30N 50°17' W 124°43'0 0.0
2018-Aug-13 20:00N 50°17' W 124°43'0 0.0
2018-Aug-13 19:29N 50°17' W 124°43'0 0.0
2018-Aug-13 19:00N 50°17' W 124°43'0 0.0
2018-Aug-13 18:30N 50°17' W 124°43'1 1.7
2018-Aug-13 18:00N 50°16' W 124°43'4 7.3
2018-Aug-13 17:30N 50°13' W 124°45'4 7.8
2018-Aug-13 17:00N 50°09' W 124°45'4 7.0
2018-Aug-13 16:28N 50°06' W 124°48'3 7.4
2018-Aug-13 16:00N 50°04' W 124°52'2 4.3
2018-Aug-13 15:28N 50°04' W 124°56'0 0.0
2018-Aug-13 14:59N 50°04' W 124°56'0 0.0
2018-Aug-13 14:27N 50°04' W 124°56'0 0.0
2018-Aug-13 14:00N 50°04' W 124°56'0 0.0
2018-Aug-13 13:30N 50°04' W 124°56'0 0.0
2018-Aug-13 12:59N 50°04' W 124°56'0 0.0
2018-Aug-13 12:30N 50°04' W 124°56'0 0.0
2018-Aug-13 12:00N 50°04' W 124°56'0 0.0
2018-Aug-13 11:30N 50°04' W 124°56'0 0.0
2018-Aug-13 11:00N 50°04' W 124°56'0 0.0
2018-Aug-13 10:30N 50°04' W 124°56'0 0.0
2018-Aug-13 10:00N 50°04' W 124°56'0 0.0
2018-Aug-13 09:30N 50°04' W 124°56'0 0.0
2018-Aug-13 08:59N 50°04' W 124°56'0 0.0
2018-Aug-13 08:30N 50°04' W 124°56'0 0.0
2018-Aug-13 07:58N 50°04' W 124°56'0 0.0
2018-Aug-13 07:30N 50°04' W 124°56'0 0.0
2018-Aug-13 07:00N 50°04' W 124°56'0 0.0
2018-Aug-13 06:30N 50°04' W 124°56'0 0.0
2018-Aug-13 06:00N 50°04' W 124°56'0 0.0
2018-Aug-13 05:30N 50°04' W 124°56'0 0.0
2018-Aug-13 04:58N 50°04' W 124°56'0 0.0
2018-Aug-13 04:29N 50°04' W 124°56'0 0.0
2018-Aug-13 03:59N 50°04' W 124°56'0 0.0
2018-Aug-13 03:30N 50°04' W 124°56'0 0.0
2018-Aug-13 03:00N 50°04' W 124°56'0 0.1
2018-Aug-13 02:29N 50°04' W 124°56'0 0.0
2018-Aug-13 02:00N 50°04' W 124°56'0 0.0
2018-Aug-13 01:30N 50°04' W 124°56'0 0.0
2018-Aug-13 01:00N 50°04' W 124°56'0 0.0
2018-Aug-13 00:30N 50°04' W 124°56'3 5.5
2018-Aug-13 00:00N 50°01' W 124°55'4 8.4
2018-Aug-12 23:30N 49°60' W 125°01'4 7.9
2018-Aug-12 23:00N 49°59' W 125°07'3 6.9
2018-Aug-12 22:30N 49°59' W 125°12'3 6.0
2018-Aug-12 22:00N 50°02' W 125°14'0 0.0
2018-Aug-12 21:31N 50°02' W 125°14'0 0.0
2018-Aug-12 21:00N 50°02' W 125°14'0 0.0
2018-Aug-12 20:30N 50°02' W 125°14'0 0.0
2018-Aug-12 20:00N 50°02' W 125°14'0 0.0
2018-Aug-12 19:30N 50°02' W 125°14'0 0.0
2018-Aug-12 19:00N 50°02' W 125°14'0 0.0
2018-Aug-12 18:30N 50°02' W 125°14'0 0.0
2018-Aug-12 18:01N 50°02' W 125°14'0 0.0
2018-Aug-12 17:29N 50°02' W 125°14'0 0.0
2018-Aug-12 17:00N 50°02' W 125°14'0 0.0
2018-Aug-12 16:30N 50°02' W 125°14'0 0.0
2018-Aug-12 16:00N 50°02' W 125°14'0 0.0
2018-Aug-12 15:30N 50°02' W 125°14'0 0.0
2018-Aug-12 15:01N 50°02' W 125°14'0 0.0
2018-Aug-12 14:30N 50°02' W 125°14'0 0.0
2018-Aug-12 14:00N 50°02' W 125°14'0 0.0
2018-Aug-12 13:30N 50°02' W 125°14'0 0.0
2018-Aug-12 13:00N 50°02' W 125°14'0 0.0
2018-Aug-12 12:30N 50°02' W 125°14'0 0.0
2018-Aug-12 12:00N 50°02' W 125°14'0 0.0
2018-Aug-12 11:30N 50°02' W 125°14'0 0.0
2018-Aug-12 11:00N 50°02' W 125°14'0 0.0
2018-Aug-12 10:30N 50°02' W 125°14'0 0.0
2018-Aug-12 10:00N 50°02' W 125°14'0 0.0
2018-Aug-12 09:30N 50°02' W 125°14'0 0.0
2018-Aug-12 09:00N 50°02' W 125°14'0 0.0
2018-Aug-12 08:30N 50°02' W 125°14'0 0.0
2018-Aug-12 08:00N 50°02' W 125°14'0 0.0
2018-Aug-12 07:30N 50°02' W 125°14'0 0.0
2018-Aug-12 07:00N 50°02' W 125°14'0 0.0
2018-Aug-12 06:30N 50°02' W 125°14'0 0.0
2018-Aug-12 06:00N 50°02' W 125°14'0 0.0
2018-Aug-12 05:30N 50°02' W 125°14'0 0.0
2018-Aug-12 05:00N 50°02' W 125°14'0 0.0
2018-Aug-12 04:30N 50°02' W 125°14'0 0.0
2018-Aug-12 04:00N 50°02' W 125°14'0 0.0
2018-Aug-12 03:30N 50°02' W 125°14'0 0.0
2018-Aug-12 03:00N 50°02' W 125°14'0 0.0
2018-Aug-12 02:30N 50°02' W 125°14'0 0.0
2018-Aug-12 02:00N 50°02' W 125°14'0 0.0
2018-Aug-12 01:30N 50°02' W 125°14'0 0.0
2018-Aug-12 01:00N 50°02' W 125°14'0 0.0
2018-Aug-12 00:30N 50°02' W 125°14'0 0.0
2018-Aug-12 00:00N 50°02' W 125°14'0 0.0
2018-Aug-11 23:30N 50°02' W 125°14'0 0.0
2018-Aug-11 23:00N 50°02' W 125°14'0 0.0
2018-Aug-11 22:30N 50°02' W 125°14'0 0.0
2018-Aug-11 22:00N 50°02' W 125°14'0 0.0
2018-Aug-11 21:30N 50°02' W 125°14'0 0.0
2018-Aug-11 21:00N 50°02' W 125°14'0 0.0
2018-Aug-11 20:30N 50°02' W 125°14'0 0.0
2018-Aug-11 20:00N 50°02' W 125°14'0 0.0
2018-Aug-11 19:31N 50°02' W 125°14'0 0.0
2018-Aug-11 19:01N 50°02' W 125°14'0 0.0
2018-Aug-11 18:29N 50°02' W 125°14'0 0.0
2018-Aug-11 18:00N 50°02' W 125°14'0 0.0
2018-Aug-11 17:30N 50°02' W 125°14'0 0.0
2018-Aug-11 17:00N 50°02' W 125°14'0 0.0
2018-Aug-11 16:30N 50°02' W 125°14'0 0.0
2018-Aug-11 16:01N 50°02' W 125°14'0 0.0
2018-Aug-11 15:30N 50°02' W 125°14'0 0.0
2018-Aug-11 15:00N 50°02' W 125°14'0 0.0
2018-Aug-11 14:29N 50°02' W 125°14'0 0.0
2018-Aug-11 14:01N 50°02' W 125°14'0 0.0
2018-Aug-11 13:30N 50°02' W 125°14'0 0.0
2018-Aug-11 13:00N 50°02' W 125°14'0 0.0
2018-Aug-11 12:30N 50°02' W 125°14'0 0.0
2018-Aug-11 12:00N 50°02' W 125°14'0 0.0
2018-Aug-11 11:30N 50°02' W 125°14'0 0.0
2018-Aug-11 11:00N 50°02' W 125°14'0 0.0
2018-Aug-11 10:31N 50°02' W 125°14'0 0.0
2018-Aug-11 10:00N 50°02' W 125°14'0 0.0
2018-Aug-11 09:30N 50°02' W 125°14'0 0.0
2018-Aug-11 09:00N 50°02' W 125°14'0 0.0
2018-Aug-11 08:30N 50°02' W 125°14'0 0.0
2018-Aug-11 08:00N 50°02' W 125°14'0 0.0
2018-Aug-11 07:30N 50°02' W 125°14'0 0.0
2018-Aug-11 07:00N 50°02' W 125°14'0 0.0
2018-Aug-11 06:30N 50°02' W 125°14'0 0.0
2018-Aug-11 06:00N 50°02' W 125°14'0 0.0
2018-Aug-11 05:30N 50°02' W 125°14'0 0.0
2018-Aug-11 05:00N 50°02' W 125°14'0 0.0
2018-Aug-11 04:30N 50°02' W 125°14'0 0.0
2018-Aug-11 04:01N 50°02' W 125°14'0 0.0
2018-Aug-11 03:30N 50°02' W 125°14'0 0.0
2018-Aug-11 03:00N 50°02' W 125°14'0 0.0
2018-Aug-11 02:30N 50°02' W 125°14'0 0.0
2018-Aug-11 02:00N 50°02' W 125°14'0 0.0
2018-Aug-11 01:30N 50°02' W 125°14'0 0.0
2018-Aug-11 01:00N 50°02' W 125°14'0 0.0
2018-Aug-11 00:30N 50°02' W 125°14'0 0.0
2018-Aug-11 00:00N 50°02' W 125°14'0 0.0
2018-Aug-10 23:30N 50°02' W 125°14'0 0.3
2018-Aug-10 23:00N 50°02' W 125°14'2 3.1
2018-Aug-10 22:30N 50°01' W 125°13'4 5.6
2018-Aug-10 21:53N 49°58' W 125°09'3 7.7
2018-Aug-10 21:30N 49°59' W 125°04'4 8.1
2018-Aug-10 21:00N 50°00' W 124°58'4 7.7
2018-Aug-10 20:30N 50°02' W 124°53'4 8.5
2018-Aug-10 20:00N 50°05' W 124°49'4 8.2
2018-Aug-10 19:30N 50°09' W 124°45'3 5.1
2018-Aug-10 19:00N 50°09' W 124°41'0 0.1
2018-Aug-10 18:30N 50°09' W 124°41'0 0.0
2018-Aug-10 17:59N 50°09' W 124°41'0 0.0
2018-Aug-10 17:30N 50°09' W 124°41'0 0.0
2018-Aug-10 17:01N 50°09' W 124°41'0 0.0
2018-Aug-10 16:30N 50°09' W 124°41'0 0.0
2018-Aug-10 16:00N 50°09' W 124°41'0 0.0
2018-Aug-10 15:30N 50°09' W 124°41'0 0.1
2018-Aug-10 15:00N 50°09' W 124°41'0 0.0
2018-Aug-10 14:30N 50°09' W 124°41'0 0.0
2018-Aug-10 14:00N 50°09' W 124°41'0 0.0
2018-Aug-10 13:30N 50°09' W 124°41'0 0.0
2018-Aug-10 13:00N 50°09' W 124°41'0 0.0
2018-Aug-10 12:30N 50°09' W 124°41'0 0.0
2018-Aug-10 12:00N 50°09' W 124°41'0 0.0
2018-Aug-10 11:29N 50°09' W 124°41'0 0.0
2018-Aug-10 11:00N 50°09' W 124°41'0 0.0
2018-Aug-10 10:30N 50°09' W 124°41'0 0.0
2018-Aug-10 10:00N 50°09' W 124°41'0 0.0
2018-Aug-10 09:30N 50°09' W 124°41'0 0.0
2018-Aug-10 09:00N 50°09' W 124°41'0 0.0
2018-Aug-10 08:30N 50°09' W 124°41'0 0.0
2018-Aug-10 08:00N 50°09' W 124°41'0 0.0
2018-Aug-10 07:30N 50°09' W 124°41'0 0.0
2018-Aug-10 07:00N 50°09' W 124°41'0 0.0
2018-Aug-10 06:30N 50°09' W 124°41'0 0.0
2018-Aug-10 06:00N 50°09' W 124°41'0 0.0
2018-Aug-10 05:30N 50°09' W 124°41'0 0.0
2018-Aug-10 05:00N 50°09' W 124°41'0 0.0
2018-Aug-10 04:30N 50°09' W 124°41'0 0.0
2018-Aug-10 04:00N 50°09' W 124°41'0 0.0
2018-Aug-10 03:30N 50°09' W 124°41'0 0.0
2018-Aug-10 03:00N 50°09' W 124°41'0 0.0
2018-Aug-10 02:30N 50°09' W 124°41'0 0.0
2018-Aug-10 02:00N 50°09' W 124°41'0 0.0
2018-Aug-10 01:28N 50°09' W 124°41'0 0.1
2018-Aug-10 01:00N 50°09' W 124°41'0 0.0
2018-Aug-10 00:30N 50°09' W 124°41'0 0.0
2018-Aug-10 00:00N 50°09' W 124°41'0 0.0
2018-Aug-09 23:30N 50°09' W 124°41'0 0.1
2018-Aug-09 23:00N 50°09' W 124°41'0 0.0
2018-Aug-09 22:30N 50°09' W 124°41'0 0.0
2018-Aug-09 21:59N 50°09' W 124°41'0 0.0
2018-Aug-09 21:30N 50°09' W 124°41'0 0.0
2018-Aug-09 21:00N 50°09' W 124°41'0 0.1
2018-Aug-09 20:30N 50°09' W 124°41'0 0.0
2018-Aug-09 20:00N 50°09' W 124°41'0 0.0
2018-Aug-09 19:30N 50°09' W 124°41'0 0.1
2018-Aug-09 19:01N 50°09' W 124°41'0 0.1
2018-Aug-09 18:30N 50°09' W 124°41'0 0.0
2018-Aug-09 18:00N 50°09' W 124°41'0 0.0
2018-Aug-09 17:30N 50°09' W 124°41'0 0.1
2018-Aug-09 17:00N 50°09' W 124°41'0 0.0
2018-Aug-09 16:30N 50°09' W 124°41'0 0.0
2018-Aug-09 16:00N 50°09' W 124°41'0 0.0
2018-Aug-09 15:30N 50°09' W 124°41'0 0.0
2018-Aug-09 15:00N 50°09' W 124°41'0 0.0
2018-Aug-09 14:30N 50°09' W 124°41'0 0.0
2018-Aug-09 14:00N 50°09' W 124°41'0 0.0
2018-Aug-09 13:31N 50°09' W 124°41'0 0.0
2018-Aug-09 13:00N 50°09' W 124°41'0 0.0
2018-Aug-09 12:30N 50°09' W 124°41'0 0.0
2018-Aug-09 12:00N 50°09' W 124°41'0 0.0
2018-Aug-09 11:30N 50°09' W 124°41'0 0.0
2018-Aug-09 11:00N 50°09' W 124°41'0 0.1
2018-Aug-09 10:30N 50°09' W 124°41'0 0.0
2018-Aug-09 10:00N 50°09' W 124°41'0 0.0
2018-Aug-09 09:30N 50°09' W 124°41'0 0.1
2018-Aug-09 09:00N 50°09' W 124°41'0 0.0
2018-Aug-09 08:30N 50°09' W 124°41'0 0.0
2018-Aug-09 08:00N 50°09' W 124°41'0 0.0
2018-Aug-09 07:30N 50°09' W 124°41'0 0.0
2018-Aug-09 07:00N 50°09' W 124°41'0 0.0
2018-Aug-09 06:30N 50°09' W 124°41'0 0.0
2018-Aug-09 06:00N 50°09' W 124°41'0 0.0
2018-Aug-09 05:30N 50°09' W 124°41'0 0.0
2018-Aug-09 05:00N 50°09' W 124°41'0 0.0
2018-Aug-09 04:28N 50°09' W 124°41'0 0.0
2018-Aug-09 04:00N 50°09' W 124°41'0 0.0
2018-Aug-09 03:30N 50°09' W 124°41'0 0.0
2018-Aug-09 03:00N 50°09' W 124°41'0 0.0
2018-Aug-09 02:30N 50°09' W 124°41'0 0.1
2018-Aug-09 02:00N 50°09' W 124°41'0 0.1
2018-Aug-09 01:30N 50°09' W 124°41'0 0.0
2018-Aug-09 01:00N 50°09' W 124°41'0 0.0
2018-Aug-09 00:30N 50°09' W 124°41'0 0.0
2018-Aug-09 00:00N 50°09' W 124°41'0 0.1
2018-Aug-08 23:30N 50°09' W 124°41'0 0.0
2018-Aug-08 23:00N 50°09' W 124°41'0 0.0
2018-Aug-08 22:30N 50°09' W 124°41'0 0.0
2018-Aug-08 22:00N 50°09' W 124°41'0 0.0
2018-Aug-08 21:30N 50°09' W 124°41'0 0.0
2018-Aug-08 20:58N 50°09' W 124°41'0 0.0
2018-Aug-08 20:30N 50°09' W 124°41'0 0.0
2018-Aug-08 20:00N 50°09' W 124°41'0 0.0
2018-Aug-08 19:30N 50°09' W 124°41'0 0.0
2018-Aug-08 19:00N 50°09' W 124°41'0 0.0
2018-Aug-08 18:30N 50°09' W 124°41'0 0.0
2018-Aug-08 18:00N 50°09' W 124°41'0 0.1
2018-Aug-08 17:30N 50°09' W 124°41'0 0.1
2018-Aug-08 17:00N 50°09' W 124°41'0 0.0
2018-Aug-08 16:30N 50°09' W 124°41'0 0.0
2018-Aug-08 15:59N 50°09' W 124°41'0 0.1
2018-Aug-08 15:30N 50°09' W 124°41'0 0.0
2018-Aug-08 15:00N 50°09' W 124°41'0 0.0
2018-Aug-08 14:30N 50°09' W 124°41'0 0.0
2018-Aug-08 14:00N 50°09' W 124°41'0 0.0
2018-Aug-08 13:30N 50°09' W 124°41'0 0.0
2018-Aug-08 13:00N 50°09' W 124°41'0 0.0
2018-Aug-08 12:30N 50°09' W 124°41'0 0.0
2018-Aug-08 12:00N 50°09' W 124°41'0 0.0
2018-Aug-08 11:30N 50°09' W 124°41'0 0.0
2018-Aug-08 11:00N 50°09' W 124°41'0 0.0
2018-Aug-08 10:30N 50°09' W 124°41'0 0.0
2018-Aug-08 10:00N 50°09' W 124°41'0 0.0
2018-Aug-08 09:30N 50°09' W 124°41'0 0.0
2018-Aug-08 09:00N 50°09' W 124°41'0 0.0
2018-Aug-08 08:30N 50°09' W 124°41'0 0.0
2018-Aug-08 08:00N 50°09' W 124°41'0 0.0
2018-Aug-08 07:30N 50°09' W 124°41'0 0.0
2018-Aug-08 07:00N 50°09' W 124°41'0 0.0
2018-Aug-08 06:30N 50°09' W 124°41'0 0.0
2018-Aug-08 06:00N 50°09' W 124°41'0 0.0
2018-Aug-08 05:30N 50°09' W 124°41'0 0.0
2018-Aug-08 05:00N 50°09' W 124°41'0 0.0
2018-Aug-08 04:30N 50°09' W 124°41'0 0.0
2018-Aug-08 04:00N 50°09' W 124°41'0 0.1
2018-Aug-08 03:30N 50°09' W 124°41'0 0.1
2018-Aug-08 03:00N 50°09' W 124°41'0 0.1
2018-Aug-08 02:30N 50°09' W 124°41'0 0.1
2018-Aug-08 02:00N 50°09' W 124°41'0 0.0
2018-Aug-08 01:30N 50°09' W 124°41'0 0.1
2018-Aug-08 01:00N 50°09' W 124°41'0 0.0
2018-Aug-08 00:30N 50°09' W 124°41'0 0.0
2018-Aug-08 00:00N 50°09' W 124°41'0 0.0
2018-Aug-07 23:30N 50°09' W 124°41'0 0.0
2018-Aug-07 23:00N 50°09' W 124°41'0 0.0
2018-Aug-07 22:30N 50°09' W 124°41'0 0.0
2018-Aug-07 22:00N 50°09' W 124°41'0 0.0
2018-Aug-07 21:29N 50°09' W 124°41'0 0.0
2018-Aug-07 21:00N 50°09' W 124°41'0 0.0
2018-Aug-07 20:30N 50°09' W 124°41'0 0.0
2018-Aug-07 20:00N 50°09' W 124°41'0 0.0
2018-Aug-07 19:30N 50°09' W 124°41'0 0.0
2018-Aug-07 19:00N 50°09' W 124°41'0 0.0
2018-Aug-07 18:30N 50°09' W 124°41'0 0.0
2018-Aug-07 18:00N 50°09' W 124°41'0 0.1
2018-Aug-07 17:30N 50°09' W 124°41'0 0.5
2018-Aug-07 17:00N 50°09' W 124°41'3 5.6
2018-Aug-07 16:30N 50°10' W 124°45'4 7.7
2018-Aug-07 16:00N 50°14' W 124°44'3 6.0
2018-Aug-07 15:30N 50°17' W 124°43'0 0.3
2018-Aug-07 15:00N 50°17' W 124°44'0 0.0
2018-Aug-07 14:30N 50°17' W 124°44'0 0.0
2018-Aug-07 14:00N 50°17' W 124°44'0 0.0
2018-Aug-07 13:30N 50°17' W 124°44'0 0.0
2018-Aug-07 13:00N 50°17' W 124°44'0 0.0
2018-Aug-07 12:30N 50°17' W 124°44'0 0.0
2018-Aug-07 12:00N 50°17' W 124°44'0 0.0
2018-Aug-07 11:30N 50°17' W 124°44'0 0.0
2018-Aug-07 11:00N 50°17' W 124°44'0 0.0
2018-Aug-07 10:30N 50°17' W 124°44'0 0.0
2018-Aug-07 10:00N 50°17' W 124°44'0 0.0
2018-Aug-07 09:30N 50°17' W 124°44'0 0.0
2018-Aug-07 09:00N 50°17' W 124°44'0 0.0
2018-Aug-07 08:30N 50°17' W 124°44'0 0.0
2018-Aug-07 08:00N 50°17' W 124°44'0 0.0
2018-Aug-07 07:29N 50°17' W 124°44'0 0.0
2018-Aug-07 07:00N 50°17' W 124°44'0 0.0
2018-Aug-07 06:27N 50°17' W 124°44'0 0.0
2018-Aug-07 06:00N 50°17' W 124°44'0 0.0
2018-Aug-07 05:30N 50°17' W 124°44'0 0.0
2018-Aug-07 05:00N 50°17' W 124°44'0 0.0
2018-Aug-07 04:30N 50°17' W 124°44'0 0.0
2018-Aug-07 04:00N 50°17' W 124°44'0 0.0
2018-Aug-07 03:30N 50°17' W 124°44'0 0.0
2018-Aug-07 03:00N 50°17' W 124°44'0 0.0
2018-Aug-07 02:30N 50°17' W 124°44'0 0.0
2018-Aug-07 02:00N 50°17' W 124°44'0 0.0
2018-Aug-07 01:30N 50°17' W 124°44'0 0.0
2018-Aug-07 01:00N 50°17' W 124°44'0 0.0
2018-Aug-07 00:30N 50°17' W 124°44'0 0.0
2018-Aug-06 23:58N 50°17' W 124°44'0 0.0
2018-Aug-06 23:31N 50°17' W 124°44'0 0.0
2018-Aug-06 23:00N 50°17' W 124°44'0 0.0
2018-Aug-06 22:30N 50°17' W 124°44'0 0.0
2018-Aug-06 22:00N 50°17' W 124°44'0 0.0
2018-Aug-06 21:30N 50°17' W 124°44'0 0.0
2018-Aug-06 20:59N 50°17' W 124°44'0 0.0
2018-Aug-06 20:29N 50°17' W 124°44'0 0.0
2018-Aug-06 20:00N 50°17' W 124°44'0 0.0
2018-Aug-06 19:30N 50°17' W 124°44'0 0.0
2018-Aug-06 19:00N 50°17' W 124°44'0 0.0
2018-Aug-06 18:30N 50°17' W 124°44'0 0.0
2018-Aug-06 18:00N 50°17' W 124°44'0 0.0
2018-Aug-06 17:29N 50°17' W 124°44'0 0.0
2018-Aug-06 17:00N 50°17' W 124°44'0 0.0
2018-Aug-06 16:30N 50°17' W 124°44'0 0.0
2018-Aug-06 16:00N 50°17' W 124°44'0 0.0
2018-Aug-06 15:30N 50°17' W 124°44'0 0.0
2018-Aug-06 15:00N 50°17' W 124°44'0 0.0
2018-Aug-06 14:30N 50°17' W 124°44'0 0.0
2018-Aug-06 14:00N 50°17' W 124°44'0 0.0
2018-Aug-06 13:30N 50°17' W 124°44'0 0.0
2018-Aug-06 13:00N 50°17' W 124°44'0 0.0
2018-Aug-06 12:30N 50°17' W 124°44'0 0.0
2018-Aug-06 12:00N 50°17' W 124°44'0 0.0
2018-Aug-06 11:30N 50°17' W 124°44'0 0.0
2018-Aug-06 11:00N 50°17' W 124°44'0 0.0
2018-Aug-06 10:30N 50°17' W 124°44'0 0.0
2018-Aug-06 10:00N 50°17' W 124°44'0 0.0
2018-Aug-06 09:30N 50°17' W 124°44'0 0.0
2018-Aug-06 09:00N 50°17' W 124°44'0 0.0
2018-Aug-06 08:30N 50°17' W 124°44'0 0.0
2018-Aug-06 08:00N 50°17' W 124°44'0 0.0
2018-Aug-06 07:30N 50°17' W 124°44'0 0.0
2018-Aug-06 07:00N 50°17' W 124°44'0 0.0
2018-Aug-06 06:30N 50°17' W 124°44'0 0.0
2018-Aug-06 05:59N 50°17' W 124°44'0 0.0
2018-Aug-06 05:30N 50°17' W 124°44'0 0.0
2018-Aug-06 05:00N 50°17' W 124°44'0 0.0
2018-Aug-06 04:29N 50°17' W 124°44'0 0.0
2018-Aug-06 04:00N 50°17' W 124°44'0 0.0
2018-Aug-06 03:30N 50°17' W 124°44'0 0.0
2018-Aug-06 03:00N 50°17' W 124°44'0 0.0
2018-Aug-06 02:29N 50°17' W 124°44'0 0.0
2018-Aug-06 02:00N 50°17' W 124°44'0 0.0
2018-Aug-06 01:30N 50°17' W 124°44'0 0.0
2018-Aug-06 01:00N 50°17' W 124°44'0 0.0
2018-Aug-06 00:30N 50°17' W 124°44'0 0.0
2018-Aug-06 00:00N 50°17' W 124°44'0 0.0
2018-Aug-05 23:30N 50°17' W 124°44'0 0.0
2018-Aug-05 23:00N 50°17' W 124°44'0 0.0
2018-Aug-05 22:31N 50°17' W 124°44'0 0.0
2018-Aug-05 22:00N 50°17' W 124°44'0 0.0
2018-Aug-05 21:30N 50°17' W 124°44'0 0.0
2018-Aug-05 21:00N 50°17' W 124°44'0 0.0
2018-Aug-05 20:30N 50°17' W 124°44'0 0.0
2018-Aug-05 20:00N 50°17' W 124°44'0 0.1
2018-Aug-05 19:30N 50°17' W 124°44'2 4.8
2018-Aug-05 19:00N 50°15' W 124°44'4 7.7
2018-Aug-05 18:30N 50°11' W 124°45'4 7.3
2018-Aug-05 18:01N 50°08' W 124°46'3 6.8
2018-Aug-05 17:30N 50°07' W 124°51'4 7.6
2018-Aug-05 17:00N 50°10' W 124°54'3 5.6
2018-Aug-05 16:30N 50°11' W 124°51'1 2.1
2018-Aug-05 16:00N 50°11' W 124°49'0 0.0
2018-Aug-05 15:30N 50°11' W 124°49'0 0.0
2018-Aug-05 15:00N 50°11' W 124°49'0 0.0
2018-Aug-05 14:00N 50°11' W 124°49'0 0.0
2018-Aug-05 13:30N 50°11' W 124°49'0 0.0
2018-Aug-05 13:00N 50°11' W 124°49'0 0.0
2018-Aug-05 12:30N 50°11' W 124°49'0 0.0
2018-Aug-05 12:00N 50°11' W 124°49'0 0.0
2018-Aug-05 11:29N 50°11' W 124°49'0 0.0
2018-Aug-05 10:59N 50°11' W 124°49'0 0.0
2018-Aug-05 10:30N 50°11' W 124°49'0 0.0
2018-Aug-05 10:00N 50°11' W 124°49'0 0.0
2018-Aug-05 09:31N 50°11' W 124°49'0 0.0
2018-Aug-05 09:00N 50°11' W 124°49'0 0.0
2018-Aug-05 08:30N 50°11' W 124°49'0 0.0
2018-Aug-05 08:00N 50°11' W 124°49'0 0.0
2018-Aug-05 07:30N 50°11' W 124°49'0 0.0
2018-Aug-05 07:00N 50°11' W 124°49'0 0.0
2018-Aug-05 06:30N 50°11' W 124°49'0 0.0
2018-Aug-05 06:00N 50°11' W 124°49'0 0.0
2018-Aug-05 05:30N 50°11' W 124°49'0 0.0
2018-Aug-05 05:00N 50°11' W 124°49'0 0.0
2018-Aug-05 04:29N 50°11' W 124°49'0 0.0
2018-Aug-05 04:00N 50°11' W 124°49'0 0.0
2018-Aug-05 03:30N 50°11' W 124°49'1 1.2
2018-Aug-05 03:00N 50°11' W 124°50'3 5.9
2018-Aug-05 02:30N 50°09' W 124°54'4 8.5
2018-Aug-05 02:00N 50°05' W 124°53'4 8.1
2018-Aug-05 01:30N 50°01' W 124°54'4 8.0
2018-Aug-05 01:00N 49°60' W 125°00'4 7.6
2018-Aug-05 00:30N 49°59' W 125°06'4 6.9
2018-Aug-05 00:00N 49°59' W 125°11'3 6.3
2018-Aug-04 23:30N 50°02' W 125°14'2 3.9
2018-Aug-04 23:00N 50°04' W 125°14'0 0.2
2018-Aug-04 22:30N 50°04' W 125°14'0 0.0
2018-Aug-04 22:00N 50°04' W 125°14'0 0.0
2018-Aug-04 21:30N 50°04' W 125°14'1 1.7
2018-Aug-04 21:00N 50°03' W 125°14'1 2.9
2018-Aug-04 20:30N 50°02' W 125°14'0 0.0
2018-Aug-04 20:00N 50°02' W 125°14'0 0.0
2018-Aug-04 19:30N 50°02' W 125°14'0 0.0
2018-Aug-04 19:00N 50°02' W 125°14'0 0.0
2018-Aug-04 18:28N 50°02' W 125°14'0 0.0
2018-Aug-04 18:00N 50°02' W 125°14'0 0.0
2018-Aug-04 17:30N 50°02' W 125°14'0 0.0
2018-Aug-04 17:00N 50°02' W 125°14'0 0.0
2018-Aug-04 16:30N 50°02' W 125°14'0 0.0
2018-Aug-04 16:00N 50°02' W 125°14'0 0.0
2018-Aug-04 15:29N 50°02' W 125°14'0 0.0
2018-Aug-04 15:00N 50°02' W 125°14'0 0.0
2018-Aug-04 14:30N 50°02' W 125°14'0 0.0
2018-Aug-04 14:00N 50°02' W 125°14'0 0.0
2018-Aug-04 13:30N 50°02' W 125°14'0 0.0
2018-Aug-04 13:00N 50°02' W 125°14'0 0.0
2018-Aug-04 12:30N 50°02' W 125°14'0 0.0
2018-Aug-04 12:00N 50°02' W 125°14'0 0.0
2018-Aug-04 11:30N 50°02' W 125°14'0 0.0
2018-Aug-04 11:00N 50°02' W 125°14'0 0.0
2018-Aug-04 10:30N 50°02' W 125°14'0 0.0
2018-Aug-04 10:00N 50°02' W 125°14'0 0.0
2018-Aug-04 09:30N 50°02' W 125°14'0 0.0
2018-Aug-04 09:00N 50°02' W 125°14'0 0.0
2018-Aug-04 08:30N 50°02' W 125°14'0 0.0
2018-Aug-04 08:00N 50°02' W 125°14'0 0.0
2018-Aug-04 07:30N 50°02' W 125°14'0 0.0
2018-Aug-04 06:59N 50°02' W 125°14'0 0.0
2018-Aug-04 06:30N 50°02' W 125°14'  

Dump ship's entire track history